sensor_id;sensor_type;location;lat;lon;timestamp;pressure;altitude;pressure_sealevel;temperature;humidity
59367;BME280;45163;47.690;11.770;2023-03-14T00:01:14;91934.66;;;9.42;100.00
59367;BME280;45163;47.690;11.770;2023-03-14T00:03:41;91920.22;;;9.17;100.00
59367;BME280;45163;47.690;11.770;2023-03-14T00:06:08;91919.22;;;8.96;100.00
59367;BME280;45163;47.690;11.770;2023-03-14T00:08:35;91919.28;;;8.78;100.00
59367;BME280;45163;47.690;11.770;2023-03-14T00:11:13;91905.28;;;8.61;100.00
59367;BME280;45163;47.690;11.770;2023-03-14T00:13:40;91902.41;;;8.46;100.00
59367;BME280;45163;47.690;11.770;2023-03-14T00:16:09;91886.38;;;8.21;100.00
59367;BME280;45163;47.690;11.770;2023-03-14T00:18:36;91859.38;;;7.99;100.00
59367;BME280;45163;47.690;11.770;2023-03-14T00:21:03;91858.94;;;7.82;100.00
59367;BME280;45163;47.690;11.770;2023-03-14T00:23:31;91869.75;;;7.64;100.00
59367;BME280;45163;47.690;11.770;2023-03-14T00:26:09;91871.69;;;7.45;100.00
59367;BME280;45163;47.690;11.770;2023-03-14T00:28:35;91884.66;;;7.32;100.00
59367;BME280;45163;47.690;11.770;2023-03-14T00:31:03;91891.22;;;7.21;100.00
59367;BME280;45163;47.690;11.770;2023-03-14T00:33:29;91879.91;;;7.14;100.00
59367;BME280;45163;47.690;11.770;2023-03-14T00:35:58;91883.19;;;7.09;100.00
59367;BME280;45163;47.690;11.770;2023-03-14T00:38:25;91894.31;;;7.02;100.00
59367;BME280;45163;47.690;11.770;2023-03-14T00:40:52;91904.25;;;6.95;100.00
59367;BME280;45163;47.690;11.770;2023-03-14T00:43:18;91902.88;;;6.91;100.00
59367;BME280;45163;47.690;11.770;2023-03-14T00:45:50;91892.31;;;6.93;100.00
59367;BME280;45163;47.690;11.770;2023-03-14T00:48:18;91889.94;;;6.95;100.00
59367;BME280;45163;47.690;11.770;2023-03-14T00:50:44;91903.13;;;6.84;100.00
59367;BME280;45163;47.690;11.770;2023-03-14T00:53:10;91904.44;;;6.70;100.00
59367;BME280;45163;47.690;11.770;2023-03-14T00:55:41;91902.44;;;6.61;100.00
59367;BME280;45163;47.690;11.770;2023-03-14T00:58:08;91910.06;;;6.54;100.00
59367;BME280;45163;47.690;11.770;2023-03-14T01:00:35;91901.31;;;6.49;100.00
59367;BME280;45163;47.690;11.770;2023-03-14T01:03:02;91900.09;;;6.51;100.00
59367;BME280;45163;47.690;11.770;2023-03-14T01:05:29;91893.94;;;6.50;100.00
59367;BME280;45163;47.690;11.770;2023-03-14T01:07:55;91893.16;;;6.49;100.00
59367;BME280;45163;47.690;11.770;2023-03-14T01:10:21;91902.50;;;6.48;100.00
59367;BME280;45163;47.690;11.770;2023-03-14T01:12:53;91893.47;;;6.52;100.00
59367;BME280;45163;47.690;11.770;2023-03-14T01:15:28;91917.44;;;6.53;100.00
59367;BME280;45163;47.690;11.770;2023-03-14T01:17:54;91921.22;;;6.56;100.00
59367;BME280;45163;47.690;11.770;2023-03-14T01:20:20;91892.47;;;6.58;100.00
59367;BME280;45163;47.690;11.770;2023-03-14T01:22:45;91920.31;;;6.59;100.00
59367;BME280;45163;47.690;11.770;2023-03-14T01:25:14;91900.44;;;6.53;100.00
59367;BME280;45163;47.690;11.770;2023-03-14T01:27:41;91903.56;;;6.51;100.00
59367;BME280;45163;47.690;11.770;2023-03-14T01:30:07;91902.81;;;6.51;100.00
59367;BME280;45163;47.690;11.770;2023-03-14T01:32:34;91900.97;;;6.47;100.00
59367;BME280;45163;47.690;11.770;2023-03-14T01:35:00;91897.97;;;6.45;100.00
59367;BME280;45163;47.690;11.770;2023-03-14T01:37:26;91894.94;;;6.43;100.00
59367;BME280;45163;47.690;11.770;2023-03-14T01:39:52;91896.59;;;6.41;100.00
59367;BME280;45163;47.690;11.770;2023-03-14T01:42:18;91895.84;;;6.40;100.00
59367;BME280;45163;47.690;11.770;2023-03-14T01:44:53;91900.94;;;6.38;100.00
59367;BME280;45163;47.690;11.770;2023-03-14T01:47:20;91885.88;;;6.37;100.00
59367;BME280;45163;47.690;11.770;2023-03-14T01:50:10;91895.09;;;6.40;100.00
59367;BME280;45163;47.690;11.770;2023-03-14T01:52:39;91882.16;;;6.44;100.00
59367;BME280;45163;47.690;11.770;2023-03-14T01:55:16;91871.03;;;6.51;100.00
59367;BME280;45163;47.690;11.770;2023-03-14T01:57:54;91863.97;;;6.54;100.00
59367;BME280;45163;47.690;11.770;2023-03-14T02:00:23;91885.09;;;6.59;100.00
59367;BME280;45163;47.690;11.770;2023-03-14T02:02:52;91896.25;;;6.61;100.00
59367;BME280;45163;47.690;11.770;2023-03-14T02:05:23;91903.91;;;6.84;100.00
59367;BME280;45163;47.690;11.770;2023-03-14T02:07:51;91910.78;;;6.76;100.00
59367;BME280;45163;47.690;11.770;2023-03-14T02:10:20;91912.56;;;6.70;100.00
59367;BME280;45163;47.690;11.770;2023-03-14T02:12:49;91916.81;;;6.80;100.00
59367;BME280;45163;47.690;11.770;2023-03-14T02:15:16;91936.84;;;6.73;100.00
59367;BME280;45163;47.690;11.770;2023-03-14T02:17:43;91944.03;;;6.67;100.00
59367;BME280;45163;47.690;11.770;2023-03-14T02:20:57;91937.84;;;6.67;100.00
59367;BME280;45163;47.690;11.770;2023-03-14T02:23:02;91950.91;;;6.59;100.00
59367;BME280;45163;47.690;11.770;2023-03-14T02:25:55;91963.13;;;6.64;100.00
59367;BME280;45163;47.690;11.770;2023-03-14T02:28:24;91968.44;;;6.67;100.00
59367;BME280;45163;47.690;11.770;2023-03-14T02:30:50;91972.53;;;6.72;100.00
59367;BME280;45163;47.690;11.770;2023-03-14T02:33:18;91969.22;;;6.77;100.00
59367;BME280;45163;47.690;11.770;2023-03-14T02:35:58;91983.38;;;6.72;100.00
59367;BME280;45163;47.690;11.770;2023-03-14T02:38:36;91988.03;;;6.71;100.00
59367;BME280;45163;47.690;11.770;2023-03-14T02:41:03;91981.97;;;6.67;100.00
59367;BME280;45163;47.690;11.770;2023-03-14T02:43:30;91983.81;;;6.70;100.00
59367;BME280;45163;47.690;11.770;2023-03-14T02:45:55;91987.53;;;6.64;100.00
59367;BME280;45163;47.690;11.770;2023-03-14T02:48:26;92002.28;;;6.63;100.00
59367;BME280;45163;47.690;11.770;2023-03-14T02:50:56;91985.09;;;6.57;100.00
59367;BME280;45163;47.690;11.770;2023-03-14T02:53:25;91977.84;;;6.54;100.00
59367;BME280;45163;47.690;11.770;2023-03-14T02:55:52;91977.31;;;6.46;100.00
59367;BME280;45163;47.690;11.770;2023-03-14T02:58:19;91981.00;;;6.52;100.00
59367;BME280;45163;47.690;11.770;2023-03-14T03:00:45;91988.72;;;6.41;100.00
59367;BME280;45163;47.690;11.770;2023-03-14T03:03:11;92001.31;;;6.35;100.00
59367;BME280;45163;47.690;11.770;2023-03-14T03:05:37;92006.88;;;6.31;100.00
59367;BME280;45163;47.690;11.770;2023-03-14T03:08:04;92003.19;;;6.25;100.00
59367;BME280;45163;47.690;11.770;2023-03-14T03:10:30;92008.53;;;6.16;100.00
59367;BME280;45163;47.690;11.770;2023-03-14T03:12:57;92006.19;;;6.05;100.00
59367;BME280;45163;47.690;11.770;2023-03-14T03:15:23;92001.31;;;6.00;100.00
59367;BME280;45163;47.690;11.770;2023-03-14T03:17:49;91995.72;;;5.94;100.00
59367;BME280;45163;47.690;11.770;2023-03-14T03:20:15;92002.06;;;5.88;100.00
59367;BME280;45163;47.690;11.770;2023-03-14T03:22:41;91985.53;;;5.86;100.00
59367;BME280;45163;47.690;11.770;2023-03-14T03:25:08;91974.56;;;5.77;100.00
59367;BME280;45163;47.690;11.770;2023-03-14T03:27:36;91958.78;;;5.75;100.00
59367;BME280;45163;47.690;11.770;2023-03-14T03:30:03;91955.13;;;5.69;100.00
59367;BME280;45163;47.690;11.770;2023-03-14T03:32:31;91952.63;;;5.74;100.00
59367;BME280;45163;47.690;11.770;2023-03-14T03:34:57;91961.06;;;5.64;100.00
59367;BME280;45163;47.690;11.770;2023-03-14T03:37:23;91953.09;;;5.60;100.00
59367;BME280;45163;47.690;11.770;2023-03-14T03:39:50;91947.22;;;5.62;100.00
59367;BME280;45163;47.690;11.770;2023-03-14T03:42:18;91936.19;;;5.56;100.00
59367;BME280;45163;47.690;11.770;2023-03-14T03:44:44;91940.31;;;5.48;100.00
59367;BME280;45163;47.690;11.770;2023-03-14T03:47:10;91945.97;;;5.41;100.00
59367;BME280;45163;47.690;11.770;2023-03-14T03:49:36;91932.88;;;5.39;100.00
59367;BME280;45163;47.690;11.770;2023-03-14T03:52:02;91933.94;;;5.29;100.00
59367;BME280;45163;47.690;11.770;2023-03-14T03:54:28;91932.44;;;5.28;100.00
59367;BME280;45163;47.690;11.770;2023-03-14T03:56:54;91936.66;;;5.29;100.00
59367;BME280;45163;47.690;11.770;2023-03-14T03:59:20;91941.75;;;5.27;100.00
59367;BME280;45163;47.690;11.770;2023-03-14T04:01:46;91935.25;;;5.24;100.00
59367;BME280;45163;47.690;11.770;2023-03-14T04:04:13;91937.22;;;5.24;100.00
59367;BME280;45163;47.690;11.770;2023-03-14T04:06:39;91925.53;;;5.27;100.00
59367;BME280;45163;47.690;11.770;2023-03-14T04:09:08;91939.81;;;5.28;100.00
59367;BME280;45163;47.690;11.770;2023-03-14T04:11:34;91926.59;;;5.30;100.00
59367;BME280;45163;47.690;11.770;2023-03-14T04:14:00;91922.47;;;5.25;100.00
59367;BME280;45163;47.690;11.770;2023-03-14T04:16:26;91920.53;;;5.25;100.00
59367;BME280;45163;47.690;11.770;2023-03-14T04:18:52;91909.59;;;5.29;100.00
59367;BME280;45163;47.690;11.770;2023-03-14T04:21:18;91898.47;;;5.27;100.00
59367;BME280;45163;47.690;11.770;2023-03-14T04:23:44;91898.47;;;5.27;100.00
59367;BME280;45163;47.690;11.770;2023-03-14T04:26:10;91891.97;;;5.24;100.00
59367;BME280;45163;47.690;11.770;2023-03-14T04:28:36;91894.69;;;5.24;100.00
59367;BME280;45163;47.690;11.770;2023-03-14T04:31:09;91897.16;;;5.32;100.00
59367;BME280;45163;47.690;11.770;2023-03-14T04:33:36;91893.38;;;5.29;100.00
59367;BME280;45163;47.690;11.770;2023-03-14T04:36:04;91891.31;;;5.33;100.00
59367;BME280;45163;47.690;11.770;2023-03-14T04:38:30;91900.50;;;5.36;100.00
59367;BME280;45163;47.690;11.770;2023-03-14T04:40:56;91890.44;;;5.36;100.00
59367;BME280;45163;47.690;11.770;2023-03-14T04:43:23;91894.47;;;5.32;100.00
59367;BME280;45163;47.690;11.770;2023-03-14T04:45:48;91888.28;;;5.31;100.00
59367;BME280;45163;47.690;11.770;2023-03-14T04:48:14;91888.28;;;5.31;100.00
59367;BME280;45163;47.690;11.770;2023-03-14T04:50:40;91884.81;;;5.31;100.00
59367;BME280;45163;47.690;11.770;2023-03-14T04:53:06;91878.00;;;5.26;100.00
59367;BME280;45163;47.690;11.770;2023-03-14T04:55:32;91874.53;;;5.25;100.00
59367;BME280;45163;47.690;11.770;2023-03-14T04:58:00;91873.78;;;5.25;100.00
59367;BME280;45163;47.690;11.770;2023-03-14T05:00:26;91871.94;;;5.22;100.00
59367;BME280;45163;47.690;11.770;2023-03-14T05:02:52;91866.69;;;5.18;100.00
59367;BME280;45163;47.690;11.770;2023-03-14T05:05:18;91843.97;;;5.16;100.00
59367;BME280;45163;47.690;11.770;2023-03-14T05:07:44;91847.09;;;5.14;100.00
59367;BME280;45163;47.690;11.770;2023-03-14T05:10:10;91850.56;;;5.15;100.00
59367;BME280;45163;47.690;11.770;2023-03-14T05:12:36;91835.09;;;5.15;100.00
59367;BME280;45163;47.690;11.770;2023-03-14T05:15:03;91826.88;;;5.19;100.00
59367;BME280;45163;47.690;11.770;2023-03-14T05:17:32;91812.59;;;5.18;100.00
59367;BME280;45163;47.690;11.770;2023-03-14T05:19:58;91801.75;;;5.18;100.00
59367;BME280;45163;47.690;11.770;2023-03-14T05:22:24;91793.97;;;5.20;100.00
59367;BME280;45163;47.690;11.770;2023-03-14T05:24:50;91797.53;;;5.17;100.00
59367;BME280;45163;47.690;11.770;2023-03-14T05:27:16;91798.91;;;5.22;100.00
59367;BME280;45163;47.690;11.770;2023-03-14T05:29:42;91797.66;;;5.14;100.00
59367;BME280;45163;47.690;11.770;2023-03-14T05:32:08;91790.63;;;5.16;100.00
59367;BME280;45163;47.690;11.770;2023-03-14T05:34:34;91787.78;;;5.20;100.00
59367;BME280;45163;47.690;11.770;2023-03-14T05:37:00;91780.78;;;5.22;100.00
59367;BME280;45163;47.690;11.770;2023-03-14T05:39:26;91771.56;;;5.20;100.00
59367;BME280;45163;47.690;11.770;2023-03-14T05:41:52;91770.06;;;5.19;100.00
59367;BME280;45163;47.690;11.770;2023-03-14T05:44:19;91782.91;;;5.28;100.00
59367;BME280;45163;47.690;11.770;2023-03-14T05:46:45;91778.25;;;5.28;100.00
59367;BME280;45163;47.690;11.770;2023-03-14T05:49:11;91765.59;;;5.25;100.00
59367;BME280;45163;47.690;11.770;2023-03-14T05:51:37;91763.56;;;5.16;100.00
59367;BME280;45163;47.690;11.770;2023-03-14T05:54:03;91766.38;;;5.13;100.00
59367;BME280;45163;47.690;11.770;2023-03-14T05:56:29;91771.38;;;5.14;100.00
59367;BME280;45163;47.690;11.770;2023-03-14T05:58:55;91764.31;;;5.17;100.00
59367;BME280;45163;47.690;11.770;2023-03-14T06:01:23;91763.13;;;5.18;100.00
59367;BME280;45163;47.690;11.770;2023-03-14T06:03:49;91775.03;;;5.20;100.00
59367;BME280;45163;47.690;11.770;2023-03-14T06:06:15;91759.03;;;5.13;100.00
59367;BME280;45163;47.690;11.770;2023-03-14T06:08:42;91768.53;;;5.18;100.00
59367;BME280;45163;47.690;11.770;2023-03-14T06:11:08;91763.28;;;5.14;100.00
59367;BME280;45163;47.690;11.770;2023-03-14T06:13:35;91755.28;;;5.11;100.00
59367;BME280;45163;47.690;11.770;2023-03-14T06:16:00;91749.41;;;5.12;100.00
59367;BME280;45163;47.690;11.770;2023-03-14T06:18:26;91743.88;;;5.16;100.00
59367;BME280;45163;47.690;11.770;2023-03-14T06:20:56;91734.69;;;5.13;100.00
59367;BME280;45163;47.690;11.770;2023-03-14T06:23:22;91728.97;;;5.11;100.00
59367;BME280;45163;47.690;11.770;2023-03-14T06:25:48;91727.31;;;5.14;100.00
59367;BME280;45163;47.690;11.770;2023-03-14T06:28:14;91723.44;;;5.15;100.00
59367;BME280;45163;47.690;11.770;2023-03-14T06:30:40;91720.66;;;5.06;100.00
59367;BME280;45163;47.690;11.770;2023-03-14T06:33:06;91728.53;;;5.13;100.00
59367;BME280;45163;47.690;11.770;2023-03-14T06:35:32;91727.03;;;5.12;100.00
59367;BME280;45163;47.690;11.770;2023-03-14T06:37:58;91731.31;;;5.22;100.00
59367;BME280;45163;47.690;11.770;2023-03-14T06:40:24;91731.75;;;5.20;100.00
59367;BME280;45163;47.690;11.770;2023-03-14T06:42:50;91734.63;;;5.26;100.00
59367;BME280;45163;47.690;11.770;2023-03-14T06:45:16;91743.97;;;5.25;100.00
59367;BME280;45163;47.690;11.770;2023-03-14T06:47:42;91732.38;;;5.24;100.00
59367;BME280;45163;47.690;11.770;2023-03-14T06:50:09;91742.75;;;5.26;100.00
59367;BME280;45163;47.690;11.770;2023-03-14T06:52:36;91735.53;;;5.23;100.00
59367;BME280;45163;47.690;11.770;2023-03-14T06:55:03;91737.03;;;5.24;100.00
59367;BME280;45163;47.690;11.770;2023-03-14T06:57:29;91734.78;;;5.22;100.00
59367;BME280;45163;47.690;11.770;2023-03-14T06:59:55;91738.09;;;5.27;100.00
59367;BME280;45163;47.690;11.770;2023-03-14T07:02:22;91725.03;;;5.25;100.00
59367;BME280;45163;47.690;11.770;2023-03-14T07:04:49;91727.72;;;5.25;100.00
59367;BME280;45163;47.690;11.770;2023-03-14T07:07:15;91725.91;;;5.22;100.00
59367;BME280;45163;47.690;11.770;2023-03-14T07:09:42;91727.97;;;5.18;100.00
59367;BME280;45163;47.690;11.770;2023-03-14T07:12:08;91733.25;;;5.21;100.00
59367;BME280;45163;47.690;11.770;2023-03-14T07:14:34;91737.59;;;5.19;100.00
59367;BME280;45163;47.690;11.770;2023-03-14T07:16:59;91733.81;;;5.16;100.00
59367;BME280;45163;47.690;11.770;2023-03-14T07:19:25;91736.97;;;5.15;100.00
59367;BME280;45163;47.690;11.770;2023-03-14T07:21:51;91732.88;;;5.10;100.00
59367;BME280;45163;47.690;11.770;2023-03-14T07:24:17;91735.44;;;5.14;100.00
59367;BME280;45163;47.690;11.770;2023-03-14T07:26:43;91735.44;;;5.14;100.00
59367;BME280;45163;47.690;11.770;2023-03-14T07:29:09;91736.53;;;5.16;100.00
59367;BME280;45163;47.690;11.770;2023-03-14T07:31:35;91736.06;;;5.18;100.00
59367;BME280;45163;47.690;11.770;2023-03-14T07:34:01;91743.44;;;5.17;100.00
59367;BME280;45163;47.690;11.770;2023-03-14T07:36:27;91738.66;;;5.21;100.00
59367;BME280;45163;47.690;11.770;2023-03-14T07:38:53;91740.03;;;5.26;100.00
59367;BME280;45163;47.690;11.770;2023-03-14T07:41:19;91743.19;;;5.24;100.00
59367;BME280;45163;47.690;11.770;2023-03-14T07:43:46;91752.81;;;5.25;100.00
59367;BME280;45163;47.690;11.770;2023-03-14T07:46:12;91751.00;;;5.22;100.00
59367;BME280;45163;47.690;11.770;2023-03-14T07:48:39;91749.69;;;5.27;100.00
59367;BME280;45163;47.690;11.770;2023-03-14T07:51:06;91750.81;;;5.17;100.00
59367;BME280;45163;47.690;11.770;2023-03-14T07:53:32;91754.59;;;5.19;100.00
59367;BME280;45163;47.690;11.770;2023-03-14T07:55:58;91758.78;;;5.20;100.00
59367;BME280;45163;47.690;11.770;2023-03-14T07:58:24;91764.31;;;5.17;100.00
59367;BME280;45163;47.690;11.770;2023-03-14T08:00:51;91775.03;;;5.20;100.00
59367;BME280;45163;47.690;11.770;2023-03-14T08:03:18;91781.47;;;5.36;100.00
59367;BME280;45163;47.690;11.770;2023-03-14T08:05:47;91782.88;;;5.40;100.00
59367;BME280;45163;47.690;11.770;2023-03-14T08:08:13;91788.53;;;5.55;100.00
59367;BME280;45163;47.690;11.770;2023-03-14T08:10:39;91786.44;;;5.37;100.00
59367;BME280;45163;47.690;11.770;2023-03-14T08:13:05;91787.00;;;5.32;100.00
59367;BME280;45163;47.690;11.770;2023-03-14T08:15:31;91796.31;;;5.31;100.00
59367;BME280;45163;47.690;11.770;2023-03-14T08:17:57;91790.47;;;5.33;100.00
59367;BME280;45163;47.690;11.770;2023-03-14T08:20:28;91783.22;;;5.30;100.00
59367;BME280;45163;47.690;11.770;2023-03-14T08:22:58;91777.16;;;5.25;100.00
59367;BME280;45163;47.690;11.770;2023-03-14T08:25:26;91793.41;;;5.25;100.00
59367;BME280;45163;47.690;11.770;2023-03-14T08:27:52;91789.75;;;5.19;100.00
59367;BME280;45163;47.690;11.770;2023-03-14T08:30:20;91786.41;;;5.15;100.00
59367;BME280;45163;47.690;11.770;2023-03-14T08:32:47;91780.88;;;5.19;100.00
59367;BME280;45163;47.690;11.770;2023-03-14T08:35:14;91789.00;;;5.19;100.00
59367;BME280;45163;47.690;11.770;2023-03-14T08:37:40;91788.00;;;5.25;100.00
59367;BME280;45163;47.690;11.770;2023-03-14T08:40:07;91795.34;;;5.25;100.00
59367;BME280;45163;47.690;11.770;2023-03-14T08:42:34;91787.16;;;5.16;100.00
59367;BME280;45163;47.690;11.770;2023-03-14T08:45:00;91794.28;;;5.22;100.00
59367;BME280;45163;47.690;11.770;2023-03-14T08:47:26;91790.81;;;5.22;100.00
59367;BME280;45163;47.690;11.770;2023-03-14T08:49:52;91793.22;;;5.20;100.00
59367;BME280;45163;47.690;11.770;2023-03-14T08:52:18;91790.38;;;5.23;100.00
59367;BME280;45163;47.690;11.770;2023-03-14T08:54:44;91789.81;;;5.29;100.00
59367;BME280;45163;47.690;11.770;2023-03-14T08:57:10;91780.00;;;5.22;100.00
59367;BME280;45163;47.690;11.770;2023-03-14T08:59:36;91790.69;;;5.25;100.00
59367;BME280;45163;47.690;11.770;2023-03-14T09:02:02;91784.66;;;5.21;100.00
59367;BME280;45163;47.690;11.770;2023-03-14T09:04:32;91780.97;;;5.28;100.00
59367;BME280;45163;47.690;11.770;2023-03-14T09:06:59;91789.72;;;5.32;100.00
59367;BME280;45163;47.690;11.770;2023-03-14T09:09:25;91790.47;;;5.33;100.00
59367;BME280;45163;47.690;11.770;2023-03-14T09:11:56;91792.28;;;5.36;100.00
59367;BME280;45163;47.690;11.770;2023-03-14T09:14:23;91797.91;;;5.41;100.00
59367;BME280;45163;47.690;11.770;2023-03-14T09:16:49;91801.47;;;5.38;100.00
59367;BME280;45163;47.690;11.770;2023-03-14T09:19:16;91799.22;;;5.37;100.00
59367;BME280;45163;47.690;11.770;2023-03-14T09:21:42;91814.00;;;5.45;100.00
59367;BME280;45163;47.690;11.770;2023-03-14T09:24:08;91812.69;;;5.49;100.00
59367;BME280;45163;47.690;11.770;2023-03-14T09:26:38;91824.78;;;5.58;100.00
59367;BME280;45163;47.690;11.770;2023-03-14T09:29:04;91831.06;;;5.55;100.00
59367;BME280;45163;47.690;11.770;2023-03-14T09:31:30;91834.34;;;5.49;100.00
59367;BME280;45163;47.690;11.770;2023-03-14T09:33:56;91828.94;;;5.49;100.00
59367;BME280;45163;47.690;11.770;2023-03-14T09:36:22;91824.59;;;5.52;100.00
59367;BME280;45163;47.690;11.770;2023-03-14T09:38:48;91834.00;;;5.60;100.00
59367;BME280;45163;47.690;11.770;2023-03-14T09:41:26;91840.06;;;5.52;100.00
59367;BME280;45163;47.690;11.770;2023-03-14T09:46:27;91835.53;;;5.48;100.00
59367;BME280;45163;47.690;11.770;2023-03-14T09:48:54;91826.69;;;5.48;100.00
59367;BME280;45163;47.690;11.770;2023-03-14T09:51:21;91831.63;;;5.49;100.00
59367;BME280;45163;47.690;11.770;2023-03-14T09:53:50;91830.44;;;5.50;100.00
59367;BME280;45163;47.690;11.770;2023-03-14T09:56:26;91827.38;;;5.61;100.00
59367;BME280;45163;47.690;11.770;2023-03-14T09:58:59;91822.03;;;5.70;100.00
59367;BME280;45163;47.690;11.770;2023-03-14T10:01:28;91829.53;;;5.88;100.00
59367;BME280;45163;47.690;11.770;2023-03-14T10:03:56;91819.44;;;5.89;100.00
59367;BME280;45163;47.690;11.770;2023-03-14T10:06:26;91803.09;;;5.92;100.00
59367;BME280;45163;47.690;11.770;2023-03-14T10:08:53;91811.56;;;5.94;100.00
59367;BME280;45163;47.690;11.770;2023-03-14T10:11:20;91807.66;;;5.95;100.00
59367;BME280;45163;47.690;11.770;2023-03-14T10:14:09;91797.16;;;5.85;100.00
59367;BME280;45163;47.690;11.770;2023-03-14T10:16:41;91799.75;;;5.88;100.00
59367;BME280;45163;47.690;11.770;2023-03-14T10:19:13;91796.91;;;6.14;100.00
59367;BME280;45163;47.690;11.770;2023-03-14T10:21:41;91790.78;;;6.22;100.00
59367;BME280;45163;47.690;11.770;2023-03-14T10:24:29;91779.41;;;6.28;100.00
59367;BME280;45163;47.690;11.770;2023-03-14T10:27:05;91772.22;;;6.43;100.00
59367;BME280;45163;47.690;11.770;2023-03-14T10:29:33;91772.97;;;6.43;100.00
59367;BME280;45163;47.690;11.770;2023-03-14T10:32:05;91771.59;;;6.39;100.00
59367;BME280;45163;47.690;11.770;2023-03-14T10:34:35;91773.34;;;6.23;100.00
59367;BME280;45163;47.690;11.770;2023-03-14T10:37:08;91766.28;;;6.26;100.00
59367;BME280;45163;47.690;11.770;2023-03-14T10:39:46;91771.81;;;6.22;100.00
59367;BME280;45163;47.690;11.770;2023-03-14T10:42:39;91777.31;;;6.32;100.00
59367;BME280;45163;47.690;11.770;2023-03-14T10:47:48;91771.31;;;6.86;100.00
59367;BME280;45163;47.690;11.770;2023-03-14T10:50:30;91779.00;;;6.79;100.00
59367;BME280;45163;47.690;11.770;2023-03-14T10:53:00;91772.97;;;6.93;100.00
59367;BME280;45163;47.690;11.770;2023-03-14T10:55:44;91771.81;;;7.12;100.00
59367;BME280;45163;47.690;11.770;2023-03-14T11:00:48;91769.53;;;8.21;100.00
59367;BME280;45163;47.690;11.770;2023-03-14T11:03:16;91761.81;;;9.04;100.00
59367;BME280;45163;47.690;11.770;2023-03-14T11:06:01;91760.44;;;10.25;100.00
59367;BME280;45163;47.690;11.770;2023-03-14T11:08:42;91752.94;;;9.81;100.00
59367;BME280;45163;47.690;11.770;2023-03-14T11:11:18;91733.38;;;9.53;100.00
59367;BME280;45163;47.690;11.770;2023-03-14T11:19:43;91710.50;;;13.07;100.00
59367;BME280;45163;47.690;11.770;2023-03-14T11:30:55;91696.00;;;15.15;100.00
59367;BME280;45163;47.690;11.770;2023-03-14T11:36:46;91683.75;;;17.72;100.00
59367;BME280;45163;47.690;11.770;2023-03-14T11:39:16;91685.69;;;16.79;100.00
59367;BME280;45163;47.690;11.770;2023-03-14T11:41:57;91683.81;;;16.27;100.00
59367;BME280;45163;47.690;11.770;2023-03-14T11:44:34;91684.00;;;17.01;100.00
59367;BME280;45163;47.690;11.770;2023-03-14T11:47:06;91681.94;;;16.00;100.00
59367;BME280;45163;47.690;11.770;2023-03-14T11:52:37;91677.06;;;14.22;100.00
59367;BME280;45163;47.690;11.770;2023-03-14T11:55:19;91670.22;;;13.73;100.00
59367;BME280;45163;47.690;11.770;2023-03-14T11:57:50;91664.69;;;13.56;100.00
59367;BME280;45163;47.690;11.770;2023-03-14T12:00:23;91667.97;;;12.68;100.00
59367;BME280;45163;47.690;11.770;2023-03-14T12:03:32;91670.44;;;11.57;100.00
59367;BME280;45163;47.690;11.770;2023-03-14T12:06:08;91662.28;;;11.16;100.00
59367;BME280;45163;47.690;11.770;2023-03-14T12:08:46;91671.69;;;10.94;100.00
59367;BME280;45163;47.690;11.770;2023-03-14T12:14:02;91676.44;;;10.44;100.00
59367;BME280;45163;47.690;11.770;2023-03-14T12:16:36;91666.88;;;10.34;100.00
59367;BME280;45163;47.690;11.770;2023-03-14T12:19:26;91675.69;;;10.43;100.00
59367;BME280;45163;47.690;11.770;2023-03-14T12:24:34;91677.69;;;10.98;100.00
59367;BME280;45163;47.690;11.770;2023-03-14T12:27:03;91676.06;;;11.27;100.00
59367;BME280;45163;47.690;11.770;2023-03-14T12:29:30;91679.81;;;11.09;100.00
59367;BME280;45163;47.690;11.770;2023-03-14T12:34:28;91673.22;;;10.95;100.00
59367;BME280;45163;47.690;11.770;2023-03-14T12:37:05;91679.22;;;11.00;100.00
59367;BME280;45163;47.690;11.770;2023-03-14T12:39:58;91669.63;;;10.89;100.00
59367;BME280;45163;47.690;11.770;2023-03-14T12:45:27;91673.34;;;11.07;100.00
59367;BME280;45163;47.690;11.770;2023-03-14T12:50:34;91672.59;;;11.06;100.00
59367;BME280;45163;47.690;11.770;2023-03-14T12:55:50;91669.44;;;10.93;100.00
59367;BME280;45163;47.690;11.770;2023-03-14T12:58:31;91667.09;;;10.86;100.00
59367;BME280;45163;47.690;11.770;2023-03-14T13:01:03;91665.13;;;11.07;100.00
59367;BME280;45163;47.690;11.770;2023-03-14T13:03:41;91671.34;;;11.48;100.00
59367;BME280;45163;47.690;11.770;2023-03-14T13:06:10;91669.78;;;11.01;100.00
59367;BME280;45163;47.690;11.770;2023-03-14T13:11:12;91679.22;;;11.00;100.00
59367;BME280;45163;47.690;11.770;2023-03-14T13:13:46;91681.38;;;11.16;100.00
59367;BME280;45163;47.690;11.770;2023-03-14T13:16:19;91682.00;;;11.05;100.00
59367;BME280;45163;47.690;11.770;2023-03-14T13:18:47;91686.84;;;11.16;100.00
59367;BME280;45163;47.690;11.770;2023-03-14T13:24:07;91707.78;;;10.04;100.00
59367;BME280;45163;47.690;11.770;2023-03-14T13:26:44;91710.03;;;10.06;100.00
59367;BME280;45163;47.690;11.770;2023-03-14T13:29:23;91710.34;;;9.69;100.00
59367;BME280;45163;47.690;11.770;2023-03-14T13:31:54;91717.69;;;9.78;100.00
59367;BME280;45163;47.690;11.770;2023-03-14T13:34:25;91714.59;;;9.70;100.00
59367;BME280;45163;47.690;11.770;2023-03-14T13:36:52;91717.91;;;9.74;100.00
59367;BME280;45163;47.690;11.770;2023-03-14T13:39:21;91727.84;;;9.62;100.00
59367;BME280;45163;47.690;11.770;2023-03-14T13:41:51;91732.53;;;9.62;100.00
59367;BME280;45163;47.690;11.770;2023-03-14T13:44:38;91736.72;;;9.48;100.00
59367;BME280;45163;47.690;11.770;2023-03-14T13:47:10;91747.19;;;9.40;100.00